createdAt,value
2023-01-22T00:00:46.450Z,0.00
2023-01-22T00:01:46.311Z,0.00
2023-01-22T00:02:46.363Z,0.00
2023-01-22T00:03:47.086Z,0.00
2023-01-22T00:04:46.286Z,0.00
2023-01-22T00:05:46.261Z,0.00
2023-01-22T00:06:46.453Z,0.00
2023-01-22T00:07:46.248Z,0.00
2023-01-22T00:08:46.235Z,0.00
2023-01-22T00:09:46.233Z,0.00
2023-01-22T00:10:46.224Z,0.00
2023-01-22T00:11:46.215Z,0.00
2023-01-22T00:12:46.349Z,0.00
2023-01-22T00:13:46.178Z,0.00
2023-01-22T00:14:46.180Z,0.00
2023-01-22T00:15:46.196Z,0.00
2023-01-22T00:16:46.156Z,0.00
2023-01-22T00:17:46.137Z,0.00
2023-01-22T00:18:46.433Z,0.00
2023-01-22T00:19:46.122Z,0.00
2023-01-22T00:20:46.110Z,0.00
2023-01-22T00:21:46.090Z,0.00
2023-01-22T00:22:46.101Z,0.00
2023-01-22T00:23:46.079Z,0.00
2023-01-22T00:24:46.235Z,0.00
2023-01-22T00:25:46.063Z,0.00
2023-01-22T00:26:46.046Z,0.00
2023-01-22T00:27:46.030Z,0.00
2023-01-22T00:28:46.027Z,0.00
2023-01-22T00:29:46.012Z,0.00
2023-01-22T00:30:46.163Z,0.00
2023-01-22T00:31:46.072Z,0.00
2023-01-22T00:32:45.983Z,0.00
2023-01-22T00:33:45.974Z,0.00
2023-01-22T00:34:45.965Z,0.00
2023-01-22T00:35:45.949Z,0.00
2023-01-22T00:36:46.100Z,0.00
2023-01-22T00:37:45.931Z,0.00
2023-01-22T00:38:45.916Z,0.00
2023-01-22T00:39:45.917Z,0.00
2023-01-22T00:40:45.898Z,0.00
2023-01-22T00:41:45.876Z,0.00
2023-01-22T00:42:46.027Z,0.00
2023-01-22T00:43:45.872Z,0.00
2023-01-22T00:44:45.861Z,0.00
2023-01-22T00:45:45.840Z,0.00
2023-01-22T00:46:45.930Z,0.00
2023-01-22T00:47:45.822Z,0.00
2023-01-22T00:48:45.986Z,0.00
2023-01-22T00:49:45.807Z,0.00
2023-01-22T00:50:45.890Z,0.00
2023-01-22T00:51:45.791Z,0.00
2023-01-22T00:52:45.767Z,0.00
2023-01-22T00:53:45.763Z,0.00
2023-01-22T00:54:45.787Z,0.00
2023-01-22T00:55:45.731Z,0.00
2023-01-22T00:56:45.736Z,0.00
2023-01-22T00:57:45.708Z,0.00
2023-01-22T00:58:45.705Z,0.00
2023-01-22T00:59:45.689Z,0.00
2023-01-22T01:00:45.852Z,0.00
2023-01-22T01:01:45.728Z,0.00
2023-01-22T01:02:45.676Z,0.00
2023-01-22T01:03:45.646Z,0.00
2023-01-22T01:04:45.641Z,0.00
2023-01-22T01:05:45.674Z,0.00
2023-01-22T01:06:45.760Z,0.00
2023-01-22T01:07:45.607Z,0.00
2023-01-22T01:08:45.617Z,0.00
2023-01-22T01:09:45.592Z,0.00
2023-01-22T01:10:45.592Z,0.00
2023-01-22T01:11:45.574Z,0.00
2023-01-22T01:12:45.686Z,0.00
2023-01-22T01:13:45.557Z,0.00
2023-01-22T01:14:45.547Z,0.00
2023-01-22T01:15:45.555Z,0.00
2023-01-22T01:16:45.518Z,0.00
2023-01-22T01:17:45.517Z,0.00
2023-01-22T01:18:45.651Z,0.00
2023-01-22T01:19:45.476Z,0.00
2023-01-22T01:20:45.497Z,0.00
2023-01-22T01:21:45.454Z,0.00
2023-01-22T01:22:45.449Z,0.00
2023-01-22T01:23:45.466Z,0.00
2023-01-22T01:24:45.728Z,0.00
2023-01-22T01:25:45.413Z,0.00
2023-01-22T01:26:45.414Z,0.00
2023-01-22T01:27:45.395Z,0.00
2023-01-22T01:28:45.572Z,0.00
2023-01-22T01:29:45.373Z,0.00
2023-01-22T01:30:45.533Z,0.00
2023-01-22T01:31:45.407Z,0.00
2023-01-22T01:32:45.345Z,0.00
2023-01-22T01:33:45.345Z,0.00
2023-01-22T01:34:45.320Z,0.00
2023-01-22T01:35:45.312Z,0.00
2023-01-22T01:36:49.179Z,0.00
2023-01-22T01:37:45.299Z,0.00
2023-01-22T01:38:45.284Z,0.00
2023-01-22T01:39:45.273Z,0.00
2023-01-22T01:40:45.279Z,0.00
2023-01-22T01:41:45.258Z,0.00
2023-01-22T01:42:45.373Z,0.00
2023-01-22T01:43:45.255Z,0.00
2023-01-22T01:44:45.229Z,0.00
2023-01-22T01:45:45.202Z,0.00
2023-01-22T01:46:45.273Z,0.00
2023-01-22T01:47:45.193Z,0.00
2023-01-22T01:48:45.325Z,0.00
2023-01-22T01:49:45.167Z,0.00
2023-01-22T01:50:45.164Z,0.00
2023-01-22T01:51:45.152Z,0.00
2023-01-22T01:52:45.143Z,0.00
2023-01-22T01:53:45.125Z,0.00
2023-01-22T01:54:45.316Z,0.00
2023-01-22T01:55:45.099Z,0.00
2023-01-22T01:56:45.092Z,0.00
2023-01-22T01:57:45.080Z,0.00
2023-01-22T01:58:45.079Z,0.00
2023-01-22T01:59:45.066Z,0.00
2023-01-22T02:00:45.264Z,0.00
2023-01-22T02:01:45.083Z,0.00
2023-01-22T02:02:45.026Z,0.00
2023-01-22T02:03:45.026Z,0.00
2023-01-22T02:04:45.007Z,0.00
2023-01-22T02:05:44.994Z,0.00
2023-01-22T02:06:45.033Z,0.00
2023-01-22T02:07:44.983Z,0.00
2023-01-22T02:08:44.964Z,0.00
2023-01-22T02:09:44.953Z,0.00
2023-01-22T02:10:44.947Z,0.00
2023-01-22T02:11:44.938Z,0.00
2023-01-22T02:12:45.063Z,0.00
2023-01-22T02:13:44.925Z,0.00
2023-01-22T02:14:44.907Z,0.00
2023-01-22T02:15:44.915Z,0.00
2023-01-22T02:16:44.888Z,0.00
2023-01-22T02:17:44.879Z,0.00
2023-01-22T02:18:45.007Z,0.00
2023-01-22T02:19:44.851Z,0.00
2023-01-22T02:20:44.838Z,0.00
2023-01-22T02:21:44.841Z,0.00
2023-01-22T02:22:44.816Z,0.00
2023-01-22T02:23:44.798Z,0.00
2023-01-22T02:24:44.964Z,0.00
2023-01-22T02:25:44.784Z,0.00
2023-01-22T02:26:44.782Z,0.00
2023-01-22T02:27:44.776Z,0.00
2023-01-22T02:28:44.762Z,0.00
2023-01-22T02:29:44.741Z,0.00
2023-01-22T02:30:45.011Z,0.00
2023-01-22T02:31:44.760Z,0.00
2023-01-22T02:32:44.715Z,0.00
2023-01-22T02:33:44.702Z,0.00
2023-01-22T02:34:44.695Z,0.00
2023-01-22T02:35:44.686Z,0.00
2023-01-22T02:36:44.842Z,0.00
2023-01-22T02:37:44.657Z,0.00
2023-01-22T02:38:44.652Z,0.00
2023-01-22T02:39:44.645Z,0.00
2023-01-22T02:40:44.633Z,0.00
2023-01-22T02:41:44.616Z,0.00
2023-01-22T02:42:44.777Z,0.00
2023-01-22T02:43:44.604Z,0.00
2023-01-22T02:44:44.607Z,0.00
2023-01-22T02:45:44.587Z,0.00
2023-01-22T02:46:44.565Z,0.00
2023-01-22T02:47:44.556Z,0.00
2023-01-22T02:48:44.579Z,0.00
2023-01-22T02:49:44.538Z,0.00
2023-01-22T02:50:44.528Z,0.00
2023-01-22T02:51:44.521Z,0.00
2023-01-22T02:52:44.509Z,0.00
2023-01-22T02:53:44.504Z,0.00
2023-01-22T02:54:44.645Z,0.00
2023-01-22T02:55:44.464Z,0.00
2023-01-22T02:56:44.462Z,0.00
2023-01-22T02:57:44.452Z,0.00
2023-01-22T02:58:44.445Z,0.00
2023-01-22T02:59:44.429Z,0.00
2023-01-22T03:00:44.582Z,0.00
2023-01-22T03:01:44.413Z,0.00
2023-01-22T03:02:44.429Z,0.00
2023-01-22T03:03:44.386Z,0.00
2023-01-22T03:04:44.403Z,0.00
2023-01-22T03:05:44.382Z,0.00
2023-01-22T03:06:44.521Z,0.00
2023-01-22T03:07:44.345Z,0.00
2023-01-22T03:08:44.348Z,0.00
2023-01-22T03:09:44.333Z,0.00
2023-01-22T03:10:44.309Z,0.00
2023-01-22T03:11:44.318Z,0.00
2023-01-22T03:12:44.419Z,0.00
2023-01-22T03:13:44.281Z,0.00
2023-01-22T03:14:44.290Z,0.00
2023-01-22T03:15:44.280Z,0.00
2023-01-22T03:16:44.289Z,0.00
2023-01-22T03:17:44.255Z,0.00
2023-01-22T03:18:44.431Z,0.00
2023-01-22T03:19:44.295Z,0.00
2023-01-22T03:20:44.213Z,0.00
2023-01-22T03:21:44.208Z,0.00
2023-01-22T03:22:44.213Z,0.00
2023-01-22T03:23:44.189Z,0.00
2023-01-22T03:24:44.233Z,0.00
2023-01-22T03:25:44.200Z,0.00
2023-01-22T03:26:44.216Z,0.00
2023-01-22T03:27:44.144Z,0.00
2023-01-22T03:28:44.153Z,0.00
2023-01-22T03:29:44.113Z,0.00
2023-01-22T03:30:44.274Z,0.00
2023-01-22T03:31:44.184Z,0.00
2023-01-22T03:32:44.078Z,0.00
2023-01-22T03:33:44.092Z,0.00
2023-01-22T03:34:44.067Z,0.00
2023-01-22T03:35:44.078Z,0.00
2023-01-22T03:36:44.417Z,0.00
2023-01-22T03:37:44.040Z,0.00
2023-01-22T03:38:44.043Z,0.00
2023-01-22T03:39:44.011Z,0.00
2023-01-22T03:40:44.002Z,0.00
2023-01-22T03:41:43.988Z,0.00
2023-01-22T03:42:44.115Z,0.00
2023-01-22T03:43:43.972Z,0.00
2023-01-22T03:44:43.953Z,0.00
2023-01-22T03:45:43.988Z,0.00
2023-01-22T03:46:43.937Z,0.00
2023-01-22T03:47:43.921Z,0.00
2023-01-22T03:48:44.031Z,0.00
2023-01-22T03:49:43.902Z,0.00
2023-01-22T03:50:43.897Z,0.00
2023-01-22T03:51:43.891Z,0.00
2023-01-22T03:52:43.863Z,0.00
2023-01-22T03:53:43.866Z,0.00
2023-01-22T03:54:44.004Z,0.00
2023-01-22T03:55:43.839Z,0.00
2023-01-22T03:56:43.825Z,0.00
2023-01-22T03:57:43.832Z,0.00
2023-01-22T03:58:43.804Z,0.00
2023-01-22T03:59:43.809Z,0.00
2023-01-22T04:00:43.933Z,0.00
2023-01-22T04:01:43.796Z,0.00
2023-01-22T04:02:43.874Z,0.00
2023-01-22T04:03:43.812Z,0.00
2023-01-22T04:04:43.745Z,0.00
2023-01-22T04:05:43.733Z,0.00
2023-01-22T04:06:43.869Z,0.00
2023-01-22T04:07:43.731Z,0.00
2023-01-22T04:08:43.696Z,0.00
2023-01-22T04:09:43.701Z,0.00
2023-01-22T04:10:43.667Z,0.00
2023-01-22T04:11:43.684Z,0.00
2023-01-22T04:12:43.697Z,0.00
2023-01-22T04:13:43.651Z,0.00
2023-01-22T04:14:43.631Z,0.00
2023-01-22T04:15:43.622Z,0.00
2023-01-22T04:16:43.695Z,0.00
2023-01-22T04:17:43.596Z,0.00
2023-01-22T04:18:43.741Z,0.00
2023-01-22T04:19:43.582Z,0.00
2023-01-22T04:20:43.585Z,0.00
2023-01-22T04:21:43.571Z,0.00
2023-01-22T04:22:43.563Z,0.00
2023-01-22T04:23:43.545Z,0.00
2023-01-22T04:24:43.681Z,0.00
2023-01-22T04:25:43.518Z,0.00
2023-01-22T04:26:43.504Z,0.00
2023-01-22T04:27:43.502Z,0.00
2023-01-22T04:28:43.520Z,0.00
2023-01-22T04:29:43.479Z,0.00
2023-01-22T04:30:43.721Z,0.00
2023-01-22T04:31:43.530Z,0.00
2023-01-22T04:32:43.491Z,0.00
2023-01-22T04:33:43.448Z,0.00
2023-01-22T04:34:43.422Z,0.00
2023-01-22T04:35:43.421Z,0.00
2023-01-22T04:36:43.561Z,0.00
2023-01-22T04:37:43.404Z,0.00
2023-01-22T04:38:43.377Z,0.00
2023-01-22T04:39:43.376Z,0.00
2023-01-22T04:40:43.356Z,0.00
2023-01-22T04:41:43.355Z,0.00
2023-01-22T04:42:43.588Z,0.00
2023-01-22T04:43:43.334Z,0.00
2023-01-22T04:44:43.320Z,0.00
2023-01-22T04:45:43.387Z,0.00
2023-01-22T04:46:43.298Z,0.00
2023-01-22T04:47:43.281Z,0.00
2023-01-22T04:48:43.393Z,0.00
2023-01-22T04:49:43.283Z,0.00
2023-01-22T04:50:45.494Z,0.00
2023-01-22T04:51:43.245Z,0.00
2023-01-22T04:52:43.226Z,0.00
2023-01-22T04:53:43.220Z,0.00
2023-01-22T04:54:43.334Z,0.00
2023-01-22T04:55:43.206Z,0.00
2023-01-22T04:56:43.195Z,0.00
2023-01-22T04:57:43.188Z,0.00
2023-01-22T04:58:43.198Z,0.00
2023-01-22T04:59:43.175Z,0.00
2023-01-22T05:00:43.185Z,0.00
2023-01-22T05:01:43.194Z,0.00
2023-01-22T05:02:43.156Z,0.00
2023-01-22T05:03:43.118Z,0.00
2023-01-22T05:04:43.187Z,0.00
2023-01-22T05:05:43.115Z,0.00
2023-01-22T05:06:43.212Z,0.00
2023-01-22T05:07:43.082Z,0.00
2023-01-22T05:08:43.074Z,0.00
2023-01-22T05:09:43.062Z,0.00
2023-01-22T05:10:43.040Z,0.00
2023-01-22T05:11:43.050Z,0.00
2023-01-22T05:12:43.191Z,0.00
2023-01-22T05:13:43.011Z,0.00
2023-01-22T05:14:43.114Z,0.00
2023-01-22T05:15:43.054Z,0.00
2023-01-22T05:16:42.977Z,0.00
2023-01-22T05:17:42.970Z,0.00
2023-01-22T05:18:43.089Z,0.00
2023-01-22T05:19:42.956Z,0.00
2023-01-22T05:20:43.002Z,0.00
2023-01-22T05:21:42.934Z,0.00
2023-01-22T05:22:42.915Z,0.00
2023-01-22T05:23:42.914Z,0.00
2023-01-22T05:24:43.038Z,0.00
2023-01-22T05:25:42.879Z,0.00
2023-01-22T05:26:42.883Z,0.00
2023-01-22T05:27:42.880Z,0.00
2023-01-22T05:28:42.851Z,0.00
2023-01-22T05:29:42.838Z,0.00
2023-01-22T05:30:43.058Z,0.00
2023-01-22T05:31:42.936Z,0.00
2023-01-22T05:32:42.813Z,0.00
2023-01-22T05:33:42.802Z,0.00
2023-01-22T05:34:42.789Z,0.00
2023-01-22T05:35:42.795Z,0.00
2023-01-22T05:36:42.974Z,0.00
2023-01-22T05:37:42.752Z,0.00
2023-01-22T05:38:42.753Z,0.00
2023-01-22T05:39:42.735Z,0.00
2023-01-22T05:40:42.743Z,0.00
2023-01-22T05:41:42.723Z,0.00
2023-01-22T05:42:42.994Z,0.00
2023-01-22T05:43:42.691Z,0.00
2023-01-22T05:44:42.681Z,0.00
2023-01-22T05:45:42.693Z,0.00
2023-01-22T05:46:42.653Z,0.00
2023-01-22T05:47:42.667Z,0.00
2023-01-22T05:48:42.807Z,0.00
2023-01-22T05:49:42.628Z,0.00
2023-01-22T05:50:42.613Z,0.00
2023-01-22T05:51:42.632Z,0.00
2023-01-22T05:52:42.601Z,0.00
2023-01-22T05:53:42.589Z,0.00
2023-01-22T05:54:42.731Z,0.00
2023-01-22T05:55:42.573Z,0.00
2023-01-22T05:56:42.555Z,0.00
2023-01-22T05:57:42.542Z,0.00
2023-01-22T05:58:42.542Z,0.00
2023-01-22T05:59:42.528Z,0.00
2023-01-22T06:00:42.662Z,0.00
2023-01-22T06:01:42.512Z,0.00
2023-01-22T06:02:42.523Z,0.00
2023-01-22T06:03:42.523Z,0.00
2023-01-22T06:04:42.464Z,0.00
2023-01-22T06:05:42.471Z,0.00
2023-01-22T06:06:42.596Z,0.00
2023-01-22T06:07:42.441Z,0.00
2023-01-22T06:08:42.430Z,0.00
2023-01-22T06:09:42.428Z,0.00
2023-01-22T06:10:42.424Z,0.00
2023-01-22T06:11:42.396Z,0.00
2023-01-22T06:12:42.526Z,0.00
2023-01-22T06:13:42.391Z,0.00
2023-01-22T06:14:42.364Z,0.00
2023-01-22T06:15:42.371Z,0.00
2023-01-22T06:16:42.352Z,0.00
2023-01-22T06:17:42.339Z,0.00
2023-01-22T06:18:42.451Z,0.00
2023-01-22T06:19:42.330Z,0.00
2023-01-22T06:20:42.315Z,0.00
2023-01-22T06:21:42.291Z,0.00
2023-01-22T06:22:42.275Z,0.00
2023-01-22T06:23:42.271Z,0.00
2023-01-22T06:24:42.411Z,0.00
2023-01-22T06:25:42.257Z,0.00
2023-01-22T06:26:42.239Z,0.00
2023-01-22T06:27:42.246Z,0.00
2023-01-22T06:28:42.251Z,0.00
2023-01-22T06:29:42.207Z,0.00
2023-01-22T06:30:42.408Z,0.00
2023-01-22T06:31:42.236Z,0.00
2023-01-22T06:32:42.234Z,0.00
2023-01-22T06:33:42.221Z,0.00
2023-01-22T06:34:42.196Z,0.00
2023-01-22T06:35:42.175Z,0.00
2023-01-22T06:36:43.657Z,0.00
2023-01-22T06:37:42.141Z,0.00
2023-01-22T06:38:42.115Z,0.00
2023-01-22T06:39:42.161Z,0.00
2023-01-22T06:40:42.113Z,0.00
2023-01-22T06:41:42.143Z,0.00
2023-01-22T06:42:42.248Z,0.00
2023-01-22T06:43:42.084Z,0.00
2023-01-22T06:44:42.099Z,0.00
2023-01-22T06:45:42.063Z,0.00
2023-01-22T06:46:42.204Z,0.00
2023-01-22T06:47:42.042Z,0.00
2023-01-22T06:48:42.259Z,0.00
2023-01-22T06:49:42.036Z,0.00
2023-01-22T06:50:41.991Z,0.00
2023-01-22T06:51:41.984Z,0.00
2023-01-22T06:52:41.968Z,0.00
2023-01-22T06:53:41.961Z,0.00
2023-01-22T06:54:42.095Z,0.00
2023-01-22T06:55:41.945Z,0.00
2023-01-22T06:56:42.105Z,0.00
2023-01-22T06:57:41.921Z,0.00
2023-01-22T06:58:41.975Z,0.00
2023-01-22T06:59:41.925Z,0.00
2023-01-22T07:00:42.024Z,0.00
2023-01-22T07:01:41.935Z,0.00
2023-01-22T07:02:41.857Z,0.00
2023-01-22T07:03:41.880Z,0.00
2023-01-22T07:04:41.837Z,0.00
2023-01-22T07:05:41.836Z,0.00
2023-01-22T07:06:41.976Z,0.00
2023-01-22T07:07:41.820Z,0.00
2023-01-22T07:08:41.805Z,0.00
2023-01-22T07:09:41.812Z,0.00
2023-01-22T07:10:41.793Z,0.00
2023-01-22T07:11:41.767Z,0.00
2023-01-22T07:12:41.904Z,0.00
2023-01-22T07:13:41.751Z,0.00
2023-01-22T07:14:41.748Z,0.00
2023-01-22T07:15:41.724Z,0.00
2023-01-22T07:16:41.716Z,0.00
2023-01-22T07:17:41.743Z,0.00
2023-01-22T07:18:41.880Z,0.00
2023-01-22T07:19:41.704Z,0.00
2023-01-22T07:20:41.729Z,0.00
2023-01-22T07:21:41.667Z,0.00
2023-01-22T07:22:41.650Z,0.00
2023-01-22T07:23:41.645Z,0.00
2023-01-22T07:24:41.786Z,0.00
2023-01-22T07:25:41.624Z,0.00
2023-01-22T07:26:41.630Z,0.00
2023-01-22T07:27:41.613Z,0.00
2023-01-22T07:28:41.549Z,1.00
2023-01-22T07:29:41.591Z,0.00
2023-01-22T07:30:49.423Z,0.00
2023-01-22T07:31:41.576Z,0.00
2023-01-22T07:32:41.546Z,0.00
2023-01-22T07:33:41.536Z,0.00
2023-01-22T07:34:41.480Z,1.00
2023-01-22T07:35:41.471Z,1.00
2023-01-22T07:36:41.644Z,0.00
2023-01-22T07:37:41.456Z,1.00
2023-01-22T07:38:41.430Z,1.00
2023-01-22T07:39:41.426Z,1.00
2023-01-22T07:40:41.405Z,1.00
2023-01-22T07:41:41.395Z,1.00
2023-01-22T07:42:41.544Z,1.00
2023-01-22T07:43:41.372Z,1.00
2023-01-22T07:44:41.370Z,1.00
2023-01-22T07:45:41.355Z,1.00
2023-01-22T07:46:41.404Z,1.00
2023-01-22T07:47:41.338Z,2.00
2023-01-22T07:48:41.462Z,2.00
2023-01-22T07:49:41.325Z,2.00
2023-01-22T07:50:41.304Z,2.00
2023-01-22T07:51:41.289Z,2.00
2023-01-22T07:52:41.339Z,0.00
2023-01-22T07:53:41.325Z,0.00
2023-01-22T07:54:41.566Z,2.00
2023-01-22T07:55:41.247Z,2.00
2023-01-22T07:56:41.243Z,2.00
2023-01-22T07:57:41.222Z,2.00
2023-01-22T07:58:41.245Z,2.00
2023-01-22T07:59:41.200Z,1.00
2023-01-22T08:00:41.380Z,1.00
2023-01-22T08:01:41.221Z,1.00
2023-01-22T08:02:41.182Z,3.00
2023-01-22T08:03:41.180Z,3.00
2023-01-22T08:04:41.153Z,3.00
2023-01-22T08:05:41.138Z,3.00
2023-01-22T08:06:41.272Z,3.00
2023-01-22T08:07:41.123Z,3.00
2023-01-22T08:08:41.119Z,3.00
2023-01-22T08:09:41.099Z,2.00
2023-01-22T08:10:41.096Z,3.00
2023-01-22T08:11:41.074Z,4.00
2023-01-22T08:12:41.236Z,2.00
2023-01-22T08:13:41.061Z,1.00
2023-01-22T08:14:41.055Z,7.00
2023-01-22T08:15:41.039Z,7.00
2023-01-22T08:16:41.097Z,4.00
2023-01-22T08:17:41.033Z,1.00
2023-01-22T08:18:41.147Z,7.00
2023-01-22T08:19:40.992Z,1.00
2023-01-22T08:20:40.990Z,3.00
2023-01-22T08:21:40.966Z,4.00
2023-01-22T08:22:40.967Z,3.00
2023-01-22T08:23:40.954Z,4.00
2023-01-22T08:24:41.179Z,2.00
2023-01-22T08:25:40.925Z,7.00
2023-01-22T08:26:40.927Z,7.00
2023-01-22T08:27:40.902Z,7.00
2023-01-22T08:28:40.901Z,3.00
2023-01-22T08:29:40.887Z,7.00
2023-01-22T08:31:52.884Z,7.00
2023-01-22T08:32:53.636Z,7.00
2023-01-22T08:33:53.633Z,7.00
2023-01-22T08:34:53.620Z,7.00
2023-01-22T08:35:53.612Z,7.00
2023-01-22T08:36:53.742Z,8.00
2023-01-22T08:37:53.579Z,7.00
2023-01-22T08:38:53.581Z,8.00
2023-01-22T08:39:53.562Z,7.00
2023-01-22T08:40:53.579Z,6.00
2023-01-22T08:41:53.546Z,8.00
2023-01-22T08:42:53.714Z,6.00
2023-01-22T08:43:53.519Z,5.00
2023-01-22T08:44:53.519Z,7.00
2023-01-22T08:45:53.683Z,8.00
2023-01-22T08:46:53.504Z,7.00
2023-01-22T08:47:53.483Z,7.00
2023-01-22T08:48:53.643Z,6.00
2023-01-22T08:49:53.460Z,5.00
2023-01-22T08:50:53.499Z,7.00
2023-01-22T08:51:53.474Z,7.00
2023-01-22T08:52:53.443Z,7.00
2023-01-22T08:53:53.428Z,7.00
2023-01-22T08:54:53.709Z,7.00
2023-01-22T08:55:53.407Z,7.00
2023-01-22T08:56:53.413Z,8.00
2023-01-22T08:57:53.381Z,7.00
2023-01-22T08:58:53.373Z,5.00
2023-01-22T09:00:00.988Z,10.00
2023-01-22T09:00:53.512Z,9.00
2023-01-22T09:01:53.400Z,7.00
2023-01-22T09:02:53.349Z,7.00
2023-01-22T09:03:53.313Z,8.00
2023-01-22T09:04:53.308Z,5.00
2023-01-22T09:05:53.301Z,8.00
2023-01-22T09:06:53.423Z,6.00
2023-01-22T09:07:53.286Z,9.00
2023-01-22T09:08:53.271Z,5.00
2023-01-22T09:09:53.265Z,8.00
2023-01-22T09:10:53.246Z,9.00
2023-01-22T09:11:53.232Z,10.00
2023-01-22T09:12:53.279Z,11.00
2023-01-22T09:13:53.208Z,10.00
2023-01-22T09:14:53.211Z,8.00
2023-01-22T09:15:53.185Z,10.00
2023-01-22T09:16:53.187Z,10.00
2023-01-22T09:17:53.187Z,11.00
2023-01-22T09:18:53.307Z,5.00
2023-01-22T09:19:53.149Z,10.00
2023-01-22T09:20:53.153Z,9.00
2023-01-22T09:21:53.133Z,8.00
2023-01-22T09:22:53.124Z,9.00
2023-01-22T09:23:53.107Z,7.00
2023-01-22T09:24:53.263Z,7.00
2023-01-22T09:25:53.090Z,7.00
2023-01-22T09:26:53.081Z,10.00
2023-01-22T09:27:53.066Z,11.00
2023-01-22T09:28:53.075Z,9.00
2023-01-22T09:29:53.076Z,5.00
2023-01-22T09:31:00.106Z,5.00
2023-01-22T09:31:53.062Z,3.00
2023-01-22T09:32:53.022Z,5.00
2023-01-22T09:33:53.002Z,9.00
2023-01-22T09:34:52.992Z,7.00
2023-01-22T09:35:52.987Z,5.00
2023-01-22T09:36:53.141Z,7.00
2023-01-22T09:37:52.960Z,7.00
2023-01-22T09:38:52.958Z,7.00
2023-01-22T09:39:52.943Z,5.00
2023-01-22T09:40:52.939Z,9.00
2023-01-22T09:41:52.938Z,7.00
2023-01-22T09:42:53.069Z,9.00
2023-01-22T09:43:52.907Z,9.00
2023-01-22T09:44:52.890Z,9.00
2023-01-22T09:45:53.009Z,9.00
2023-01-22T09:46:52.875Z,9.00
2023-01-22T09:47:52.875Z,7.00
2023-01-22T09:48:53.014Z,7.00
2023-01-22T09:49:52.838Z,5.00
2023-01-22T09:50:52.890Z,15.00
2023-01-22T09:51:52.813Z,5.00
2023-01-22T09:52:52.808Z,5.00
2023-01-22T09:53:52.797Z,5.00
2023-01-22T09:54:52.943Z,5.00
2023-01-22T09:55:52.861Z,7.00
2023-01-22T09:56:52.768Z,5.00
2023-01-22T09:57:52.755Z,7.00
2023-01-22T09:58:52.758Z,5.00
2023-01-22T09:59:52.754Z,5.00
2023-01-22T10:00:53.031Z,9.00
2023-01-22T10:01:52.726Z,7.00
2023-01-22T10:02:52.706Z,5.00
2023-01-22T10:03:52.692Z,7.00
2023-01-22T10:04:52.695Z,5.00
2023-01-22T10:05:52.679Z,7.00
2023-01-22T10:06:52.801Z,5.00
2023-01-22T10:07:52.657Z,9.00
2023-01-22T10:08:52.640Z,5.00
2023-01-22T10:09:52.670Z,7.00
2023-01-22T10:10:52.648Z,15.00
2023-01-22T10:11:52.611Z,15.00
2023-01-22T10:12:52.765Z,9.00
2023-01-22T10:13:53.673Z,12.00
2023-01-22T10:14:52.585Z,13.00
2023-01-22T10:15:52.598Z,9.00
2023-01-22T10:16:52.625Z,9.00
2023-01-22T10:17:52.558Z,9.00
2023-01-22T10:18:53.403Z,6.00
2023-01-22T10:19:52.529Z,13.00
2023-01-22T10:20:52.516Z,13.00
2023-01-22T10:21:52.503Z,13.00
2023-01-22T10:22:52.497Z,12.00
2023-01-22T10:23:52.643Z,10.00
2023-01-22T10:24:52.624Z,12.00
2023-01-22T10:25:52.462Z,11.00
2023-01-22T10:26:52.489Z,9.00
2023-01-22T10:27:52.444Z,7.00
2023-01-22T10:28:52.450Z,9.00
2023-01-22T10:29:52.424Z,6.00
2023-01-22T10:30:59.736Z,11.00
2023-01-22T10:31:52.589Z,8.00
2023-01-22T10:32:52.407Z,10.00
2023-01-22T10:33:52.385Z,10.00
2023-01-22T10:34:52.375Z,10.00
2023-01-22T10:35:52.370Z,11.00
2023-01-22T10:36:52.487Z,11.00
2023-01-22T10:37:52.355Z,12.00
2023-01-22T10:38:52.336Z,10.00
2023-01-22T10:39:52.318Z,11.00
2023-01-22T10:40:52.308Z,12.00
2023-01-22T10:41:52.299Z,11.00
2023-01-22T10:42:52.462Z,13.00
2023-01-22T10:43:52.277Z,7.00
2023-01-22T10:44:52.272Z,12.00
2023-01-22T10:45:52.330Z,11.00
2023-01-22T10:46:52.250Z,12.00
2023-01-22T10:47:52.227Z,10.00
2023-01-22T10:48:52.406Z,10.00
2023-01-22T10:49:52.209Z,10.00
2023-01-22T10:50:52.260Z,9.00
2023-01-22T10:51:52.206Z,11.00
2023-01-22T10:52:52.182Z,12.00
2023-01-22T10:53:52.187Z,11.00
2023-01-22T10:54:52.302Z,9.00
2023-01-22T10:55:52.148Z,11.00
2023-01-22T10:56:52.140Z,11.00
2023-01-22T10:57:52.129Z,16.00
2023-01-22T10:58:52.130Z,18.00
2023-01-22T10:59:52.108Z,18.00
2023-01-22T11:00:52.609Z,15.00
2023-01-22T11:01:53.672Z,17.00
2023-01-22T11:02:52.228Z,17.00
2023-01-22T11:03:52.070Z,17.00
2023-01-22T11:04:52.087Z,18.00
2023-01-22T11:05:52.046Z,19.00
2023-01-22T11:06:52.301Z,17.00
2023-01-22T11:07:52.024Z,15.00
2023-01-22T11:08:52.031Z,19.00
2023-01-22T11:09:52.007Z,17.00
2023-01-22T11:10:51.998Z,16.00
2023-01-22T11:11:51.988Z,13.00
2023-01-22T11:12:52.117Z,14.00
2023-01-22T11:13:51.975Z,13.00
2023-01-22T11:14:51.957Z,8.00
2023-01-22T11:15:52.013Z,11.00
2023-01-22T11:16:51.943Z,11.00
2023-01-22T11:17:51.940Z,11.00
2023-01-22T11:18:52.052Z,12.00
2023-01-22T11:19:51.908Z,12.00
2023-01-22T11:20:51.917Z,11.00
2023-01-22T11:21:51.880Z,13.00
2023-01-22T11:22:51.878Z,13.00
2023-01-22T11:23:51.863Z,12.00
2023-01-22T11:24:52.043Z,11.00
2023-01-22T11:25:51.840Z,12.00
2023-01-22T11:26:51.834Z,11.00
2023-01-22T11:27:51.820Z,13.00
2023-01-22T11:28:51.813Z,13.00
2023-01-22T11:29:52.144Z,7.00
2023-01-22T11:32:03.681Z,12.00
2023-01-22T11:33:04.534Z,12.00
2023-01-22T11:34:04.526Z,12.00
2023-01-22T11:35:04.521Z,10.00
2023-01-22T11:36:04.503Z,10.00
2023-01-22T11:37:04.636Z,11.00
2023-01-22T11:38:04.493Z,12.00
2023-01-22T11:39:04.540Z,10.00
2023-01-22T11:40:04.468Z,10.00
2023-01-22T11:41:04.448Z,10.00
2023-01-22T11:42:04.447Z,9.00
2023-01-22T11:43:04.572Z,10.00
2023-01-22T11:44:04.424Z,11.00
2023-01-22T11:45:04.405Z,12.00
2023-01-22T11:46:04.455Z,10.00
2023-01-22T11:47:04.386Z,12.00
2023-01-22T11:48:04.388Z,11.00
2023-01-22T11:49:04.543Z,13.00
2023-01-22T11:50:04.360Z,15.00
2023-01-22T11:51:04.369Z,5.00
2023-01-22T11:52:04.335Z,9.00
2023-01-22T11:53:04.331Z,13.00
2023-01-22T11:54:04.317Z,13.00
2023-01-22T11:55:04.469Z,13.00
2023-01-22T11:56:04.296Z,13.00
2023-01-22T11:57:04.287Z,9.00
2023-01-22T11:58:04.278Z,13.00
2023-01-22T11:59:04.276Z,13.00
2023-01-22T12:00:04.261Z,13.00
2023-01-22T12:01:04.418Z,12.00
2023-01-22T12:02:04.297Z,10.00
2023-01-22T12:03:04.223Z,10.00
2023-01-22T12:04:04.344Z,10.00
2023-01-22T12:05:04.196Z,12.00
2023-01-22T12:06:04.202Z,11.00
2023-01-22T12:07:04.482Z,13.00
2023-01-22T12:08:04.161Z,13.00
2023-01-22T12:09:04.157Z,13.00
2023-01-22T12:10:04.158Z,13.00
2023-01-22T12:11:04.138Z,12.00
2023-01-22T12:12:04.135Z,11.00
2023-01-22T12:13:04.244Z,12.00
2023-01-22T12:14:04.115Z,11.00
2023-01-22T12:15:04.088Z,13.00
2023-01-22T12:16:05.595Z,15.00
2023-01-22T12:17:04.072Z,15.00
2023-01-22T12:18:04.059Z,11.00
2023-01-22T12:19:04.087Z,7.00
2023-01-22T12:20:04.044Z,11.00
2023-01-22T12:21:04.025Z,9.00
2023-01-22T12:22:04.026Z,13.00
2023-01-22T12:23:04.008Z,13.00
2023-01-22T12:24:04.002Z,13.00
2023-01-22T12:25:04.159Z,12.00
2023-01-22T12:26:03.983Z,10.00
2023-01-22T12:27:03.965Z,10.00
2023-01-22T12:28:03.957Z,11.00
2023-01-22T12:29:03.937Z,13.00
2023-01-22T12:30:03.941Z,13.00
2023-01-22T12:31:11.107Z,13.00
2023-01-22T12:32:03.917Z,13.00
2023-01-22T12:33:05.415Z,11.00
2023-01-22T12:34:03.897Z,9.00
2023-01-22T12:35:03.877Z,9.00
2023-01-22T12:36:03.873Z,9.00
2023-01-22T12:37:04.001Z,9.00
2023-01-22T12:38:03.876Z,7.00
2023-01-22T12:39:03.870Z,9.00
2023-01-22T12:40:03.832Z,9.00
2023-01-22T12:41:03.813Z,9.00
2023-01-22T12:42:03.811Z,10.00
2023-01-22T12:43:03.965Z,9.00
2023-01-22T12:44:03.796Z,7.00
2023-01-22T12:45:03.771Z,9.00
2023-01-22T12:46:03.789Z,5.00
2023-01-22T12:47:03.749Z,3.00
2023-01-22T12:48:03.755Z,7.00
2023-01-22T12:49:03.885Z,9.00
2023-01-22T12:50:17.264Z,9.00
2023-01-22T12:51:03.780Z,7.00
2023-01-22T12:52:03.806Z,8.00
2023-01-22T12:53:03.687Z,11.00
2023-01-22T12:54:03.699Z,10.00
2023-01-22T12:55:03.831Z,11.00
2023-01-22T12:56:03.668Z,7.00
2023-01-22T12:57:03.645Z,8.00
2023-01-22T12:58:03.641Z,10.00
2023-01-22T12:59:03.625Z,9.00
2023-01-22T13:00:03.621Z,7.00
2023-01-22T13:01:03.820Z,5.00
2023-01-22T13:02:03.651Z,5.00
2023-01-22T13:03:03.590Z,9.00
2023-01-22T13:04:03.576Z,5.00
2023-01-22T13:05:03.562Z,5.00
2023-01-22T13:06:03.561Z,7.00
2023-01-22T13:07:03.845Z,9.00
2023-01-22T13:08:03.535Z,8.00
2023-01-22T13:09:03.527Z,9.00
2023-01-22T13:10:03.536Z,7.00
2023-01-22T13:11:03.506Z,7.00
2023-01-22T13:12:03.494Z,5.00
2023-01-22T13:13:03.614Z,17.00
2023-01-22T13:14:14.756Z,9.00
2023-01-22T13:15:03.477Z,5.00
2023-01-22T13:16:03.523Z,7.00